sensor_id;sensor_type;location;lat;lon;timestamp;temperature;humidity
26990;DHT22;14537;47.788;11.858;2023-06-14T00:01:21;8.00;99.90
26990;DHT22;14537;47.788;11.858;2023-06-14T00:03:47;8.10;99.90
26990;DHT22;14537;47.788;11.858;2023-06-14T00:06:14;8.10;99.90
26990;DHT22;14537;47.788;11.858;2023-06-14T00:08:40;8.10;99.90
26990;DHT22;14537;47.788;11.858;2023-06-14T00:11:06;8.00;99.90
26990;DHT22;14537;47.788;11.858;2023-06-14T00:13:32;8.00;99.90
26990;DHT22;14537;47.788;11.858;2023-06-14T00:15:57;7.80;99.90
26990;DHT22;14537;47.788;11.858;2023-06-14T00:18:23;7.70;99.90
26990;DHT22;14537;47.788;11.858;2023-06-14T00:20:55;7.70;99.90
26990;DHT22;14537;47.788;11.858;2023-06-14T00:23:21;7.70;99.90
26990;DHT22;14537;47.788;11.858;2023-06-14T00:25:47;7.70;99.90
26990;DHT22;14537;47.788;11.858;2023-06-14T00:28:13;7.60;99.90
26990;DHT22;14537;47.788;11.858;2023-06-14T00:30:39;7.50;99.90
26990;DHT22;14537;47.788;11.858;2023-06-14T00:33:04;7.50;99.90
26990;DHT22;14537;47.788;11.858;2023-06-14T00:35:30;7.40;99.90
26990;DHT22;14537;47.788;11.858;2023-06-14T00:37:56;7.50;99.90
26990;DHT22;14537;47.788;11.858;2023-06-14T00:40:22;7.50;99.90
26990;DHT22;14537;47.788;11.858;2023-06-14T00:42:47;7.40;99.90
26990;DHT22;14537;47.788;11.858;2023-06-14T00:45:13;7.40;99.90
26990;DHT22;14537;47.788;11.858;2023-06-14T00:47:40;7.40;99.90
26990;DHT22;14537;47.788;11.858;2023-06-14T00:50:07;7.40;99.90
26990;DHT22;14537;47.788;11.858;2023-06-14T00:52:33;7.40;99.90
26990;DHT22;14537;47.788;11.858;2023-06-14T00:55:00;7.30;99.90
26990;DHT22;14537;47.788;11.858;2023-06-14T00:57:27;7.30;99.90
26990;DHT22;14537;47.788;11.858;2023-06-14T00:59:52;7.30;99.90
26990;DHT22;14537;47.788;11.858;2023-06-14T01:02:19;7.20;99.90
26990;DHT22;14537;47.788;11.858;2023-06-14T01:04:47;7.10;99.90
26990;DHT22;14537;47.788;11.858;2023-06-14T01:07:46;7.00;99.90
26990;DHT22;14537;47.788;11.858;2023-06-14T01:13:19;7.00;99.90
26990;DHT22;14537;47.788;11.858;2023-06-14T01:15:47;6.90;99.90
26990;DHT22;14537;47.788;11.858;2023-06-14T01:18:12;6.90;99.90
26990;DHT22;14537;47.788;11.858;2023-06-14T01:20:45;6.90;99.90
26990;DHT22;14537;47.788;11.858;2023-06-14T01:23:18;6.90;99.90
26990;DHT22;14537;47.788;11.858;2023-06-14T01:25:44;6.90;99.90
26990;DHT22;14537;47.788;11.858;2023-06-14T01:28:11;6.90;99.90
26990;DHT22;14537;47.788;11.858;2023-06-14T01:30:40;6.90;99.90
26990;DHT22;14537;47.788;11.858;2023-06-14T01:33:12;6.80;99.90
26990;DHT22;14537;47.788;11.858;2023-06-14T01:35:38;6.80;99.90
26990;DHT22;14537;47.788;11.858;2023-06-14T01:38:06;6.80;99.90
26990;DHT22;14537;47.788;11.858;2023-06-14T01:40:34;6.70;99.90
26990;DHT22;14537;47.788;11.858;2023-06-14T01:43:00;6.80;99.90
26990;DHT22;14537;47.788;11.858;2023-06-14T01:45:27;6.80;99.90
26990;DHT22;14537;47.788;11.858;2023-06-14T01:47:54;6.70;99.90
26990;DHT22;14537;47.788;11.858;2023-06-14T01:50:20;6.50;99.90
26990;DHT22;14537;47.788;11.858;2023-06-14T01:52:46;6.40;99.90
26990;DHT22;14537;47.788;11.858;2023-06-14T01:55:12;6.50;99.90
26990;DHT22;14537;47.788;11.858;2023-06-14T01:57:37;6.50;99.90
26990;DHT22;14537;47.788;11.858;2023-06-14T02:00:06;6.50;99.90
26990;DHT22;14537;47.788;11.858;2023-06-14T02:02:35;6.50;99.90
26990;DHT22;14537;47.788;11.858;2023-06-14T02:05:01;6.50;99.90
26990;DHT22;14537;47.788;11.858;2023-06-14T02:07:27;6.50;99.90
26990;DHT22;14537;47.788;11.858;2023-06-14T02:09:52;6.40;99.90
26990;DHT22;14537;47.788;11.858;2023-06-14T02:12:18;6.40;99.90
26990;DHT22;14537;47.788;11.858;2023-06-14T02:14:43;6.40;99.90
26990;DHT22;14537;47.788;11.858;2023-06-14T02:17:10;6.40;99.90
26990;DHT22;14537;47.788;11.858;2023-06-14T02:19:35;6.40;99.90
26990;DHT22;14537;47.788;11.858;2023-06-14T02:22:01;6.40;99.90
26990;DHT22;14537;47.788;11.858;2023-06-14T02:24:27;6.30;99.90
26990;DHT22;14537;47.788;11.858;2023-06-14T02:26:52;6.20;99.90
26990;DHT22;14537;47.788;11.858;2023-06-14T02:29:18;6.20;99.90
26990;DHT22;14537;47.788;11.858;2023-06-14T02:31:43;6.20;99.90
26990;DHT22;14537;47.788;11.858;2023-06-14T02:34:09;6.30;99.90
26990;DHT22;14537;47.788;11.858;2023-06-14T02:36:35;6.30;99.90
26990;DHT22;14537;47.788;11.858;2023-06-14T02:39:07;6.30;99.90
26990;DHT22;14537;47.788;11.858;2023-06-14T02:41:34;6.30;99.90
26990;DHT22;14537;47.788;11.858;2023-06-14T02:44:00;6.30;99.90
26990;DHT22;14537;47.788;11.858;2023-06-14T02:46:26;6.30;99.90
26990;DHT22;14537;47.788;11.858;2023-06-14T02:48:51;6.20;99.90
26990;DHT22;14537;47.788;11.858;2023-06-14T02:51:17;6.10;99.90
26990;DHT22;14537;47.788;11.858;2023-06-14T02:53:43;6.00;99.90
26990;DHT22;14537;47.788;11.858;2023-06-14T02:56:09;6.00;99.90
26990;DHT22;14537;47.788;11.858;2023-06-14T02:58:36;6.00;99.90
26990;DHT22;14537;47.788;11.858;2023-06-14T03:01:02;6.00;99.90
26990;DHT22;14537;47.788;11.858;2023-06-14T03:03:28;6.10;99.90
26990;DHT22;14537;47.788;11.858;2023-06-14T03:05:54;6.10;99.90
26990;DHT22;14537;47.788;11.858;2023-06-14T03:08:20;6.10;99.90
26990;DHT22;14537;47.788;11.858;2023-06-14T03:10:47;6.10;99.90
26990;DHT22;14537;47.788;11.858;2023-06-14T03:13:13;6.10;99.90
26990;DHT22;14537;47.788;11.858;2023-06-14T03:15:39;6.00;99.90
26990;DHT22;14537;47.788;11.858;2023-06-14T03:18:08;6.00;99.90
26990;DHT22;14537;47.788;11.858;2023-06-14T03:20:37;5.90;99.90
26990;DHT22;14537;47.788;11.858;2023-06-14T03:23:04;5.90;99.90
26990;DHT22;14537;47.788;11.858;2023-06-14T03:25:31;5.80;99.90
26990;DHT22;14537;47.788;11.858;2023-06-14T03:27:58;5.90;99.90
26990;DHT22;14537;47.788;11.858;2023-06-14T03:30:24;6.00;99.90
26990;DHT22;14537;47.788;11.858;2023-06-14T03:32:49;6.10;99.90
26990;DHT22;14537;47.788;11.858;2023-06-14T03:35:17;6.00;99.90
26990;DHT22;14537;47.788;11.858;2023-06-14T03:37:46;5.90;99.90
26990;DHT22;14537;47.788;11.858;2023-06-14T03:40:16;5.90;99.90
26990;DHT22;14537;47.788;11.858;2023-06-14T03:42:42;5.90;99.90
26990;DHT22;14537;47.788;11.858;2023-06-14T03:45:07;6.00;99.90
26990;DHT22;14537;47.788;11.858;2023-06-14T03:47:33;6.00;99.90
26990;DHT22;14537;47.788;11.858;2023-06-14T03:49:59;6.00;99.90
26990;DHT22;14537;47.788;11.858;2023-06-14T03:52:25;6.10;99.90
26990;DHT22;14537;47.788;11.858;2023-06-14T03:54:51;6.10;99.90
26990;DHT22;14537;47.788;11.858;2023-06-14T03:57:17;6.10;99.90
26990;DHT22;14537;47.788;11.858;2023-06-14T03:59:43;6.10;99.90
26990;DHT22;14537;47.788;11.858;2023-06-14T04:02:08;6.10;99.90
26990;DHT22;14537;47.788;11.858;2023-06-14T04:04:40;6.10;99.90
26990;DHT22;14537;47.788;11.858;2023-06-14T04:07:10;6.10;99.90
26990;DHT22;14537;47.788;11.858;2023-06-14T04:09:37;6.20;99.90
26990;DHT22;14537;47.788;11.858;2023-06-14T04:12:03;6.20;99.90
26990;DHT22;14537;47.788;11.858;2023-06-14T04:14:29;6.20;99.90
26990;DHT22;14537;47.788;11.858;2023-06-14T04:16:56;6.30;99.90
26990;DHT22;14537;47.788;11.858;2023-06-14T04:19:22;6.30;99.90
26990;DHT22;14537;47.788;11.858;2023-06-14T04:21:47;6.30;99.90
26990;DHT22;14537;47.788;11.858;2023-06-14T04:24:13;6.40;99.90
26990;DHT22;14537;47.788;11.858;2023-06-14T04:26:43;6.40;99.90
26990;DHT22;14537;47.788;11.858;2023-06-14T04:29:14;6.50;99.90
26990;DHT22;14537;47.788;11.858;2023-06-14T04:31:44;6.50;99.90
26990;DHT22;14537;47.788;11.858;2023-06-14T04:34:10;6.60;99.90
26990;DHT22;14537;47.788;11.858;2023-06-14T04:36:42;6.60;99.90
26990;DHT22;14537;47.788;11.858;2023-06-14T04:39:22;6.70;99.90
26990;DHT22;14537;47.788;11.858;2023-06-14T04:41:47;6.80;99.90
26990;DHT22;14537;47.788;11.858;2023-06-14T04:44:17;6.90;99.90
26990;DHT22;14537;47.788;11.858;2023-06-14T04:46:43;7.00;99.90
26990;DHT22;14537;47.788;11.858;2023-06-14T04:49:13;7.10;99.90
26990;DHT22;14537;47.788;11.858;2023-06-14T04:51:41;7.20;99.90
26990;DHT22;14537;47.788;11.858;2023-06-14T04:54:08;7.30;99.90
26990;DHT22;14537;47.788;11.858;2023-06-14T04:56:36;7.30;99.90
26990;DHT22;14537;47.788;11.858;2023-06-14T04:59:03;7.40;99.90
26990;DHT22;14537;47.788;11.858;2023-06-14T05:01:32;7.40;99.90
26990;DHT22;14537;47.788;11.858;2023-06-14T05:03:59;7.60;99.90
26990;DHT22;14537;47.788;11.858;2023-06-14T05:06:24;7.70;99.90
26990;DHT22;14537;47.788;11.858;2023-06-14T05:08:50;7.70;99.90
26990;DHT22;14537;47.788;11.858;2023-06-14T05:11:16;7.80;99.90
26990;DHT22;14537;47.788;11.858;2023-06-14T05:13:45;7.90;99.90
26990;DHT22;14537;47.788;11.858;2023-06-14T05:16:11;8.10;99.90
26990;DHT22;14537;47.788;11.858;2023-06-14T05:18:37;8.20;99.90
26990;DHT22;14537;47.788;11.858;2023-06-14T05:21:03;8.30;99.90
26990;DHT22;14537;47.788;11.858;2023-06-14T05:23:32;8.40;99.90
26990;DHT22;14537;47.788;11.858;2023-06-14T05:25:57;8.50;99.90
26990;DHT22;14537;47.788;11.858;2023-06-14T05:28:24;8.60;99.90
26990;DHT22;14537;47.788;11.858;2023-06-14T05:30:49;8.80;99.90
26990;DHT22;14537;47.788;11.858;2023-06-14T05:33:15;8.80;99.90
26990;DHT22;14537;47.788;11.858;2023-06-14T05:35:40;8.90;99.90
26990;DHT22;14537;47.788;11.858;2023-06-14T05:38:06;9.00;99.90
26990;DHT22;14537;47.788;11.858;2023-06-14T05:40:33;9.10;99.90
26990;DHT22;14537;47.788;11.858;2023-06-14T05:42:58;9.20;99.90
26990;DHT22;14537;47.788;11.858;2023-06-14T05:45:24;9.40;99.90
26990;DHT22;14537;47.788;11.858;2023-06-14T05:47:50;9.40;99.90
26990;DHT22;14537;47.788;11.858;2023-06-14T05:50:16;9.50;99.90
26990;DHT22;14537;47.788;11.858;2023-06-14T05:52:41;9.60;99.90
26990;DHT22;14537;47.788;11.858;2023-06-14T05:55:07;9.70;99.90
26990;DHT22;14537;47.788;11.858;2023-06-14T05:57:33;9.90;99.90
26990;DHT22;14537;47.788;11.858;2023-06-14T05:59:59;10.00;99.90
26990;DHT22;14537;47.788;11.858;2023-06-14T06:02:27;10.10;99.90
26990;DHT22;14537;47.788;11.858;2023-06-14T06:04:53;10.20;99.90
26990;DHT22;14537;47.788;11.858;2023-06-14T06:07:18;10.30;99.90
26990;DHT22;14537;47.788;11.858;2023-06-14T06:09:44;10.40;99.90
26990;DHT22;14537;47.788;11.858;2023-06-14T06:12:09;10.50;99.90
26990;DHT22;14537;47.788;11.858;2023-06-14T06:14:35;10.60;99.90
26990;DHT22;14537;47.788;11.858;2023-06-14T06:17:01;10.70;99.90
26990;DHT22;14537;47.788;11.858;2023-06-14T06:19:26;10.80;99.90
26990;DHT22;14537;47.788;11.858;2023-06-14T06:21:52;10.90;99.90
26990;DHT22;14537;47.788;11.858;2023-06-14T06:24:18;11.00;99.90
26990;DHT22;14537;47.788;11.858;2023-06-14T06:26:43;11.10;99.90
26990;DHT22;14537;47.788;11.858;2023-06-14T06:29:09;11.20;99.90
26990;DHT22;14537;47.788;11.858;2023-06-14T06:31:35;11.30;99.90
26990;DHT22;14537;47.788;11.858;2023-06-14T06:34:01;11.50;99.90
26990;DHT22;14537;47.788;11.858;2023-06-14T06:36:26;11.60;99.90
26990;DHT22;14537;47.788;11.858;2023-06-14T06:38:52;11.70;99.90
26990;DHT22;14537;47.788;11.858;2023-06-14T06:41:18;11.80;99.90
26990;DHT22;14537;47.788;11.858;2023-06-14T06:43:44;11.90;99.90
26990;DHT22;14537;47.788;11.858;2023-06-14T06:46:09;12.00;99.90
26990;DHT22;14537;47.788;11.858;2023-06-14T06:48:35;12.10;99.90
26990;DHT22;14537;47.788;11.858;2023-06-14T06:51:01;12.20;99.90
26990;DHT22;14537;47.788;11.858;2023-06-14T06:53:26;12.30;99.90
26990;DHT22;14537;47.788;11.858;2023-06-14T06:55:52;12.40;99.90
26990;DHT22;14537;47.788;11.858;2023-06-14T06:58:18;12.50;99.90
26990;DHT22;14537;47.788;11.858;2023-06-14T07:00:43;12.60;99.90
26990;DHT22;14537;47.788;11.858;2023-06-14T07:03:09;12.80;99.90
26990;DHT22;14537;47.788;11.858;2023-06-14T07:05:34;12.90;99.90
26990;DHT22;14537;47.788;11.858;2023-06-14T07:08:00;13.10;99.90
26990;DHT22;14537;47.788;11.858;2023-06-14T07:10:25;13.10;99.90
26990;DHT22;14537;47.788;11.858;2023-06-14T07:12:51;13.20;99.90
26990;DHT22;14537;47.788;11.858;2023-06-14T07:15:17;13.20;99.90
26990;DHT22;14537;47.788;11.858;2023-06-14T07:17:42;13.40;99.90
26990;DHT22;14537;47.788;11.858;2023-06-14T07:20:09;13.50;99.90
26990;DHT22;14537;47.788;11.858;2023-06-14T07:22:41;13.60;99.90
26990;DHT22;14537;47.788;11.858;2023-06-14T07:25:11;13.70;99.90
26990;DHT22;14537;47.788;11.858;2023-06-14T07:27:43;13.80;99.90
26990;DHT22;14537;47.788;11.858;2023-06-14T07:30:10;14.00;99.90
26990;DHT22;14537;47.788;11.858;2023-06-14T07:32:36;14.00;98.40
26990;DHT22;14537;47.788;11.858;2023-06-14T07:35:02;14.00;98.10
26990;DHT22;14537;47.788;11.858;2023-06-14T07:37:28;14.10;97.00
26990;DHT22;14537;47.788;11.858;2023-06-14T07:39:54;14.10;97.40
26990;DHT22;14537;47.788;11.858;2023-06-14T07:42:19;14.10;97.60
26990;DHT22;14537;47.788;11.858;2023-06-14T07:44:46;14.20;97.50
26990;DHT22;14537;47.788;11.858;2023-06-14T07:47:11;14.20;95.50
26990;DHT22;14537;47.788;11.858;2023-06-14T07:49:37;14.30;96.50
26990;DHT22;14537;47.788;11.858;2023-06-14T07:52:03;14.30;95.60
26990;DHT22;14537;47.788;11.858;2023-06-14T07:54:30;14.40;95.30
26990;DHT22;14537;47.788;11.858;2023-06-14T07:56:57;14.40;95.80
26990;DHT22;14537;47.788;11.858;2023-06-14T07:59:23;14.50;96.40
26990;DHT22;14537;47.788;11.858;2023-06-14T08:01:49;14.60;95.40
26990;DHT22;14537;47.788;11.858;2023-06-14T08:04:15;14.60;96.40
26990;DHT22;14537;47.788;11.858;2023-06-14T08:06:41;14.80;94.30
26990;DHT22;14537;47.788;11.858;2023-06-14T08:09:09;14.80;94.50
26990;DHT22;14537;47.788;11.858;2023-06-14T08:11:35;14.90;95.10
26990;DHT22;14537;47.788;11.858;2023-06-14T08:14:01;14.90;93.50
26990;DHT22;14537;47.788;11.858;2023-06-14T08:16:27;14.90;94.00
26990;DHT22;14537;47.788;11.858;2023-06-14T08:18:52;15.00;93.60
26990;DHT22;14537;47.788;11.858;2023-06-14T08:21:18;15.00;93.90
26990;DHT22;14537;47.788;11.858;2023-06-14T08:23:43;15.10;93.60
26990;DHT22;14537;47.788;11.858;2023-06-14T08:26:09;15.20;94.50
26990;DHT22;14537;47.788;11.858;2023-06-14T08:28:35;15.20;93.30
26990;DHT22;14537;47.788;11.858;2023-06-14T08:31:01;15.20;91.80
26990;DHT22;14537;47.788;11.858;2023-06-14T08:33:27;15.30;92.30
26990;DHT22;14537;47.788;11.858;2023-06-14T08:35:53;15.40;93.60
26990;DHT22;14537;47.788;11.858;2023-06-14T08:38:19;15.40;92.70
26990;DHT22;14537;47.788;11.858;2023-06-14T08:40:48;15.40;92.60
26990;DHT22;14537;47.788;11.858;2023-06-14T08:43:15;15.50;93.60
26990;DHT22;14537;47.788;11.858;2023-06-14T08:45:41;15.50;91.50
26990;DHT22;14537;47.788;11.858;2023-06-14T08:48:07;15.50;91.70
26990;DHT22;14537;47.788;11.858;2023-06-14T08:50:34;15.70;92.90
26990;DHT22;14537;47.788;11.858;2023-06-14T08:53:02;15.70;92.00
26990;DHT22;14537;47.788;11.858;2023-06-14T08:55:29;15.80;92.00
26990;DHT22;14537;47.788;11.858;2023-06-14T08:57:57;15.90;92.80
26990;DHT22;14537;47.788;11.858;2023-06-14T09:00:24;16.00;92.80
26990;DHT22;14537;47.788;11.858;2023-06-14T09:02:51;16.10;93.00
26990;DHT22;14537;47.788;11.858;2023-06-14T09:05:25;16.20;92.00
26990;DHT22;14537;47.788;11.858;2023-06-14T09:07:50;16.40;94.00
26990;DHT22;14537;47.788;11.858;2023-06-14T09:10:17;16.40;91.90
26990;DHT22;14537;47.788;11.858;2023-06-14T09:12:42;16.50;91.70
26990;DHT22;14537;47.788;11.858;2023-06-14T09:15:09;16.60;92.00
26990;DHT22;14537;47.788;11.858;2023-06-14T09:17:36;16.70;91.90
26990;DHT22;14537;47.788;11.858;2023-06-14T09:20:06;16.70;88.60
26990;DHT22;14537;47.788;11.858;2023-06-14T09:22:35;16.80;90.90
26990;DHT22;14537;47.788;11.858;2023-06-14T09:25:01;16.90;91.00
26990;DHT22;14537;47.788;11.858;2023-06-14T09:27:28;17.00;91.40
26990;DHT22;14537;47.788;11.858;2023-06-14T09:29:54;17.10;91.00
26990;DHT22;14537;47.788;11.858;2023-06-14T09:32:23;17.10;88.30
26990;DHT22;14537;47.788;11.858;2023-06-14T09:34:50;17.10;90.10
26990;DHT22;14537;47.788;11.858;2023-06-14T09:37:36;17.20;90.80
26990;DHT22;14537;47.788;11.858;2023-06-14T09:40:04;17.30;89.60
26990;DHT22;14537;47.788;11.858;2023-06-14T09:42:30;17.40;90.20
26990;DHT22;14537;47.788;11.858;2023-06-14T09:44:56;17.50;89.30
26990;DHT22;14537;47.788;11.858;2023-06-14T09:47:23;17.50;88.40
26990;DHT22;14537;47.788;11.858;2023-06-14T09:49:50;17.50;87.90
26990;DHT22;14537;47.788;11.858;2023-06-14T09:52:18;17.60;88.80
26990;DHT22;14537;47.788;11.858;2023-06-14T09:54:45;17.60;89.10
26990;DHT22;14537;47.788;11.858;2023-06-14T09:57:21;17.80;89.30
26990;DHT22;14537;47.788;11.858;2023-06-14T09:59:48;17.60;92.00
26990;DHT22;14537;47.788;11.858;2023-06-14T10:02:35;17.50;91.20
26990;DHT22;14537;47.788;11.858;2023-06-14T10:05:03;17.50;90.60
26990;DHT22;14537;47.788;11.858;2023-06-14T10:07:34;17.50;90.40
26990;DHT22;14537;47.788;11.858;2023-06-14T10:10:01;17.50;92.80
26990;DHT22;14537;47.788;11.858;2023-06-14T10:12:27;17.60;91.00
26990;DHT22;14537;47.788;11.858;2023-06-14T10:14:53;17.60;90.70
26990;DHT22;14537;47.788;11.858;2023-06-14T10:20:33;17.80;89.20
26990;DHT22;14537;47.788;11.858;2023-06-14T10:25:33;17.80;89.30
26990;DHT22;14537;47.788;11.858;2023-06-14T10:30:29;18.10;90.20
26990;DHT22;14537;47.788;11.858;2023-06-14T10:33:07;18.20;88.90
26990;DHT22;14537;47.788;11.858;2023-06-14T10:35:34;18.20;80.10
26990;DHT22;14537;47.788;11.858;2023-06-14T10:38:12;18.10;81.70
26990;DHT22;14537;47.788;11.858;2023-06-14T10:40:39;18.10;85.20
26990;DHT22;14537;47.788;11.858;2023-06-14T10:43:24;18.20;83.80
26990;DHT22;14537;47.788;11.858;2023-06-14T10:46:13;18.20;80.70
26990;DHT22;14537;47.788;11.858;2023-06-14T10:48:42;18.40;78.80
26990;DHT22;14537;47.788;11.858;2023-06-14T10:51:19;18.40;82.00
26990;DHT22;14537;47.788;11.858;2023-06-14T10:53:49;18.60;82.80
26990;DHT22;14537;47.788;11.858;2023-06-14T10:56:28;18.70;82.20
26990;DHT22;14537;47.788;11.858;2023-06-14T10:58:55;18.80;79.60
26990;DHT22;14537;47.788;11.858;2023-06-14T11:01:32;18.80;78.70
26990;DHT22;14537;47.788;11.858;2023-06-14T11:04:07;18.90;76.50
26990;DHT22;14537;47.788;11.858;2023-06-14T11:06:46;18.90;75.20
26990;DHT22;14537;47.788;11.858;2023-06-14T11:09:39;18.90;73.50
26990;DHT22;14537;47.788;11.858;2023-06-14T11:12:10;18.80;74.00
26990;DHT22;14537;47.788;11.858;2023-06-14T11:14:37;18.90;74.00
26990;DHT22;14537;47.788;11.858;2023-06-14T11:17:03;19.00;74.50
26990;DHT22;14537;47.788;11.858;2023-06-14T11:19:29;19.00;72.50
26990;DHT22;14537;47.788;11.858;2023-06-14T11:21:55;19.10;73.50
26990;DHT22;14537;47.788;11.858;2023-06-14T11:24:21;19.20;68.30
26990;DHT22;14537;47.788;11.858;2023-06-14T11:26:47;19.20;74.40
26990;DHT22;14537;47.788;11.858;2023-06-14T11:29:15;19.40;75.00
26990;DHT22;14537;47.788;11.858;2023-06-14T11:31:44;19.50;74.20
26990;DHT22;14537;47.788;11.858;2023-06-14T11:34:12;19.60;74.50
26990;DHT22;14537;47.788;11.858;2023-06-14T11:36:38;19.70;72.00
26990;DHT22;14537;47.788;11.858;2023-06-14T11:39:06;19.90;72.60
26990;DHT22;14537;47.788;11.858;2023-06-14T11:41:37;20.10;71.40
26990;DHT22;14537;47.788;11.858;2023-06-14T11:44:04;20.30;73.60
26990;DHT22;14537;47.788;11.858;2023-06-14T11:46:30;20.50;74.30
26990;DHT22;14537;47.788;11.858;2023-06-14T11:48:55;20.60;67.60
26990;DHT22;14537;47.788;11.858;2023-06-14T11:51:21;20.70;67.50
26990;DHT22;14537;47.788;11.858;2023-06-14T11:53:47;20.80;68.20
26990;DHT22;14537;47.788;11.858;2023-06-14T11:56:13;20.70;69.20
26990;DHT22;14537;47.788;11.858;2023-06-14T11:58:39;20.70;66.30
26990;DHT22;14537;47.788;11.858;2023-06-14T12:01:05;20.70;67.90
26990;DHT22;14537;47.788;11.858;2023-06-14T12:03:31;20.80;70.40
26990;DHT22;14537;47.788;11.858;2023-06-14T12:06:07;20.90;68.70
26990;DHT22;14537;47.788;11.858;2023-06-14T12:08:37;21.00;67.30
26990;DHT22;14537;47.788;11.858;2023-06-14T12:11:14;20.90;65.40
26990;DHT22;14537;47.788;11.858;2023-06-14T12:13:44;21.00;66.90
26990;DHT22;14537;47.788;11.858;2023-06-14T12:16:10;21.10;65.90
26990;DHT22;14537;47.788;11.858;2023-06-14T12:18:37;21.20;65.30
26990;DHT22;14537;47.788;11.858;2023-06-14T12:21:07;21.20;62.10
26990;DHT22;14537;47.788;11.858;2023-06-14T12:23:46;21.00;61.20
26990;DHT22;14537;47.788;11.858;2023-06-14T12:26:16;21.00;64.60
26990;DHT22;14537;47.788;11.858;2023-06-14T12:28:43;21.30;65.60
26990;DHT22;14537;47.788;11.858;2023-06-14T12:31:10;21.60;62.50
26990;DHT22;14537;47.788;11.858;2023-06-14T12:33:37;21.70;63.30
26990;DHT22;14537;47.788;11.858;2023-06-14T12:36:04;21.60;64.10
26990;DHT22;14537;47.788;11.858;2023-06-14T12:38:31;21.70;65.20
26990;DHT22;14537;47.788;11.858;2023-06-14T12:40:57;21.50;58.40
26990;DHT22;14537;47.788;11.858;2023-06-14T12:43:23;21.30;59.10
26990;DHT22;14537;47.788;11.858;2023-06-14T12:45:48;21.50;61.80
26990;DHT22;14537;47.788;11.858;2023-06-14T12:48:14;21.70;62.90
26990;DHT22;14537;47.788;11.858;2023-06-14T12:50:40;21.90;56.70
26990;DHT22;14537;47.788;11.858;2023-06-14T12:53:06;21.80;58.20
26990;DHT22;14537;47.788;11.858;2023-06-14T12:55:32;21.70;57.20
26990;DHT22;14537;47.788;11.858;2023-06-14T12:57:58;21.80;58.10
26990;DHT22;14537;47.788;11.858;2023-06-14T13:00:23;22.10;57.10
26990;DHT22;14537;47.788;11.858;2023-06-14T13:02:51;22.30;59.10
26990;DHT22;14537;47.788;11.858;2023-06-14T13:05:17;22.60;61.20
26990;DHT22;14537;47.788;11.858;2023-06-14T13:07:43;22.80;56.80
26990;DHT22;14537;47.788;11.858;2023-06-14T13:10:10;23.00;59.10
26990;DHT22;14537;47.788;11.858;2023-06-14T13:12:36;23.10;58.70
26990;DHT22;14537;47.788;11.858;2023-06-14T13:15:01;23.40;56.60
26990;DHT22;14537;47.788;11.858;2023-06-14T13:17:27;23.50;54.80
26990;DHT22;14537;47.788;11.858;2023-06-14T13:19:53;23.60;56.00
26990;DHT22;14537;47.788;11.858;2023-06-14T13:22:19;23.70;54.70
26990;DHT22;14537;47.788;11.858;2023-06-14T13:24:45;23.40;51.10
26990;DHT22;14537;47.788;11.858;2023-06-14T13:27:10;23.20;54.50
26990;DHT22;14537;47.788;11.858;2023-06-14T13:29:36;23.50;54.60
26990;DHT22;14537;47.788;11.858;2023-06-14T13:32:03;23.80;54.60
26990;DHT22;14537;47.788;11.858;2023-06-14T13:34:29;24.30;53.20
26990;DHT22;14537;47.788;11.858;2023-06-14T13:36:55;24.50;50.60
26990;DHT22;14537;47.788;11.858;2023-06-14T13:39:21;25.00;49.90
26990;DHT22;14537;47.788;11.858;2023-06-14T13:41:46;24.90;49.80
26990;DHT22;14537;47.788;11.858;2023-06-14T13:44:12;24.80;49.60
26990;DHT22;14537;47.788;11.858;2023-06-14T13:46:40;25.00;52.40
26990;DHT22;14537;47.788;11.858;2023-06-14T13:49:08;25.20;51.30
26990;DHT22;14537;47.788;11.858;2023-06-14T13:51:33;25.50;49.20
26990;DHT22;14537;47.788;11.858;2023-06-14T13:54:00;25.90;49.10
26990;DHT22;14537;47.788;11.858;2023-06-14T13:56:26;25.60;49.80
26990;DHT22;14537;47.788;11.858;2023-06-14T13:58:52;25.20;45.60
26990;DHT22;14537;47.788;11.858;2023-06-14T14:01:18;24.70;45.80
26990;DHT22;14537;47.788;11.858;2023-06-14T14:03:48;24.20;47.90
26990;DHT22;14537;47.788;11.858;2023-06-14T14:06:15;24.50;49.40
26990;DHT22;14537;47.788;11.858;2023-06-14T14:08:42;25.10;48.70
26990;DHT22;14537;47.788;11.858;2023-06-14T14:11:08;25.40;46.30
26990;DHT22;14537;47.788;11.858;2023-06-14T14:13:34;25.70;49.10
26990;DHT22;14537;47.788;11.858;2023-06-14T14:16:02;26.20;47.20
26990;DHT22;14537;47.788;11.858;2023-06-14T14:18:28;26.20;44.60
26990;DHT22;14537;47.788;11.858;2023-06-14T14:20:54;26.30;44.90
26990;DHT22;14537;47.788;11.858;2023-06-14T14:23:21;26.40;44.80
26990;DHT22;14537;47.788;11.858;2023-06-14T14:25:47;26.30;46.60
26990;DHT22;14537;47.788;11.858;2023-06-14T14:28:13;26.40;44.10
26990;DHT22;14537;47.788;11.858;2023-06-14T14:30:41;26.60;45.30
26990;DHT22;14537;47.788;11.858;2023-06-14T14:33:07;26.60;42.80
26990;DHT22;14537;47.788;11.858;2023-06-14T14:35:33;27.00;44.40
26990;DHT22;14537;47.788;11.858;2023-06-14T14:37:58;27.20;44.50
26990;DHT22;14537;47.788;11.858;2023-06-14T14:40:24;27.20;43.90
26990;DHT22;14537;47.788;11.858;2023-06-14T14:42:50;27.40;42.90
26990;DHT22;14537;47.788;11.858;2023-06-14T14:45:16;27.30;42.30
26990;DHT22;14537;47.788;11.858;2023-06-14T14:47:41;28.00;43.30
26990;DHT22;14537;47.788;11.858;2023-06-14T14:50:07;28.40;43.10
26990;DHT22;14537;47.788;11.858;2023-06-14T14:52:36;28.20;42.70
26990;DHT22;14537;47.788;11.858;2023-06-14T14:55:02;28.90;42.70
26990;DHT22;14537;47.788;11.858;2023-06-14T14:57:27;29.30;41.40
26990;DHT22;14537;47.788;11.858;2023-06-14T14:59:55;30.00;39.70
26990;DHT22;14537;47.788;11.858;2023-06-14T15:02:21;30.60;39.80
26990;DHT22;14537;47.788;11.858;2023-06-14T15:04:48;30.80;36.80
26990;DHT22;14537;47.788;11.858;2023-06-14T15:07:13;29.80;39.10
26990;DHT22;14537;47.788;11.858;2023-06-14T15:09:39;30.10;39.40
26990;DHT22;14537;47.788;11.858;2023-06-14T15:12:06;31.10;38.80
26990;DHT22;14537;47.788;11.858;2023-06-14T15:14:32;32.00;37.70
26990;DHT22;14537;47.788;11.858;2023-06-14T15:16:58;32.60;36.20
26990;DHT22;14537;47.788;11.858;2023-06-14T15:19:24;32.90;37.80
26990;DHT22;14537;47.788;11.858;2023-06-14T15:21:49;33.60;34.70
26990;DHT22;14537;47.788;11.858;2023-06-14T15:24:15;32.90;34.30
26990;DHT22;14537;47.788;11.858;2023-06-14T15:26:41;33.30;33.90
26990;DHT22;14537;47.788;11.858;2023-06-14T15:29:06;34.20;32.90
26990;DHT22;14537;47.788;11.858;2023-06-14T15:31:32;34.90;32.90
26990;DHT22;14537;47.788;11.858;2023-06-14T15:33:57;34.60;32.40